Dankov, Russia
Current Conditions -  °F | °C
As of 5:00 PM on Wednesday 26 Nov 2014 (Local Time) from UUOO Reporting Station
Clear Clear  
Wind Chill: 11°   Ceiling: Unl
Heat Index: 18°   Visibility: 6mi
Dew Point:   Wind: 4mph
Humidity: 49%   Direction: NA
Pressure: 30.45"   Gusts: NA
Location:  53.25°N, 39.15°E
Report Text: UUOO 261400Z VRB02MPS CAVOK M08/M17 Q1031 NOSIG RMK 12090070
Loading
Personal Weather Stations






























Interactive Weather Map New forecast layout! Learn more

10-Day Weather Forecast

Advertisements
Track Severe Weather on mobile